< < Back
Terminal Aerodrome Forecast


Current Version              Previous Versions:   1  2  3  4  5  6  7  8  9  

Terminal Aerodrome Forecast

596
FTUS42 KMLB 242300
TAFDAB
TAF
KDAB 242320Z 2500/2524 36005KT P6SM SCT040
     FM251700 01010KT P6SM SCT035=



Latest METAR

454
SAUS80 KWBC 252000 RRB
MTRDAB
METAR KDAB 251953Z 03011KT 10SM FEW045 25/14 A2995 RMK AO2 SLP141
T02500144


USA.gov is the U.S. government's official web portal to all federal, state and local government web resources and services.